Time;durP1;ratioP1;P1;durP2;ratioP2;P2;SDS_P1;SDS_P2;PMS_P1;PMS_P2;Temp;Humidity;BMP_temperature;BMP_pressure;BME280_temperature;BME280_humidity;BME280_pressure;Samples;Min_cycle;Max_cycle;Signal;HPM_P1;HPM_P2
2022/03/19 00:00:23;;;;;;;3.05;1.65;;;3.10;99.90;;;;;;4968112;28;20049;-69
2022/03/19 00:02:49;;;;;;;2.92;1.10;;;3.20;99.90;;;;;;4973245;28;20108;-69
2022/03/19 00:05:15;;;;;;;5.40;0.70;;;3.30;99.90;;;;;;4918147;28;20422;-69
2022/03/19 00:07:40;;;;;;;1.50;1.15;;;3.40;99.90;;;;;;4984909;28;20034;-69
2022/03/19 00:10:08;;;;;;;1.40;1.23;;;3.50;99.90;;;;;;4985855;28;20192;-69
2022/03/19 00:12:35;;;;;;;1.52;1.40;;;3.50;99.90;;;;;;4944682;28;20118;-69
2022/03/19 00:15:01;;;;;;;15.82;1.60;;;3.60;99.90;;;;;;4984485;28;20081;-69
2022/03/19 00:17:27;;;;;;;2.47;1.20;;;3.60;99.90;;;;;;4951851;28;20105;-69
2022/03/19 00:19:52;;;;;;;0.40;0.40;;;3.60;99.90;;;;;;4969201;28;20042;-69
2022/03/19 00:22:21;;;;;;;0.93;0.93;;;3.60;99.90;;;;;;4948748;28;20042;-69
2022/03/19 00:24:54;;;;;;;0.32;0.32;;;3.50;99.90;;;;;;4878360;28;21889;-69
2022/03/19 00:27:20;;;;;;;4.25;2.05;;;3.40;99.90;;;;;;4898611;28;20042;-69
2022/03/19 00:29:46;;;;;;;4.03;0.70;;;3.30;99.90;;;;;;4979952;28;20050;-69
2022/03/19 00:32:12;;;;;;;0.40;0.40;;;3.30;99.90;;;;;;4967134;28;20052;-69
2022/03/19 00:34:37;;;;;;;2.08;1.15;;;3.20;99.90;;;;;;4969205;28;20038;-69
2022/03/19 00:37:03;;;;;;;0.90;0.90;;;3.10;99.90;;;;;;4974733;28;20696;-69
2022/03/19 00:39:29;;;;;;;0.52;0.52;;;3.10;99.90;;;;;;4957186;28;20538;-68
2022/03/19 00:41:54;;;;;;;4.35;1.00;;;3.00;99.90;;;;;;4977969;28;20550;-69
2022/03/19 00:44:21;;;;;;;1.40;1.30;;;3.00;99.90;;;;;;4969849;28;20046;-69
2022/03/19 00:46:48;;;;;;;0.40;0.40;;;3.00;99.90;;;;;;4919198;28;20038;-69
2022/03/19 00:49:13;;;;;;;0.40;0.40;;;2.90;99.90;;;;;;4967440;28;20043;-69
2022/03/19 00:51:40;;;;;;;0.40;0.40;;;2.90;99.90;;;;;;4953245;28;20042;-69
2022/03/19 00:54:07;;;;;;;3.20;1.35;;;2.80;99.90;;;;;;4965054;28;20046;-69
2022/03/19 00:56:52;;;;;;;0.50;0.50;;;2.80;99.90;;;;;;4908263;29;20098;-69
2022/03/19 00:59:18;;;;;;;1.42;1.33;;;2.90;99.90;;;;;;4915266;29;20087;-69
2022/03/19 01:01:43;;;;;;;0.60;0.60;;;3.00;99.90;;;;;;4920596;29;20051;-69
2022/03/19 01:04:18;;;;;;;1.02;0.73;;;3.00;99.90;;;;;;4839387;29;20043;-69
2022/03/19 01:06:43;;;;;;;4.30;1.70;;;3.10;99.90;;;;;;4813558;29;20196;-69
2022/03/19 01:09:09;;;;;;;3.05;1.15;;;3.20;99.90;;;;;;4926493;29;20717;-69
2022/03/19 01:11:34;;;;;;;3.75;2.05;;;3.20;99.90;;;;;;4913469;29;20082;-69
2022/03/19 01:14:00;;;;;;;0.75;0.75;;;3.20;99.90;;;;;;4894822;29;20052;-69
2022/03/19 01:16:26;;;;;;;1.45;1.02;;;3.20;99.90;;;;;;4896559;29;20048;-69
2022/03/19 01:18:52;;;;;;;0.95;0.95;;;3.10;99.90;;;;;;4902436;29;20485;-68
2022/03/19 01:21:18;;;;;;;2.20;1.90;;;3.10;99.90;;;;;;4914262;29;20520;-69
2022/03/19 01:23:44;;;;;;;0.77;0.77;;;3.10;99.90;;;;;;4884869;29;20095;-69
2022/03/19 01:26:10;;;;;;;2.58;1.98;;;3.00;99.90;;;;;;4894662;29;20044;-69
2022/03/19 01:28:36;;;;;;;5.97;1.63;;;3.10;99.90;;;;;;4900398;29;20064;-68
2022/03/19 01:31:02;;;;;;;4.45;1.52;;;3.10;99.90;;;;;;4911124;29;20055;-68
2022/03/19 01:33:28;;;;;;;3.58;1.63;;;3.20;99.90;;;;;;4920540;28;20055;-69
2022/03/19 01:35:54;;;;;;;16.13;2.22;;;3.40;99.90;;;;;;4985296;28;20050;-69
2022/03/19 01:38:19;;;;;;;33.72;2.47;;;3.50;99.90;;;;;;4952877;28;20117;-69
2022/03/19 01:40:45;;;;;;;1.70;1.27;;;3.60;99.90;;;;;;4930105;28;20214;-68
2022/03/19 01:43:11;;;;;;;9.57;1.80;;;3.60;99.90;;;;;;4965690;28;20076;-69
2022/03/19 01:45:36;;;;;;;4.40;2.08;;;3.60;99.90;;;;;;4972446;28;20066;-68
2022/03/19 01:48:02;;;;;;;8.38;1.65;;;3.70;99.90;;;;;;4972301;28;20038;-69
2022/03/19 01:50:29;;;;;;;8.32;0.93;;;3.70;99.90;;;;;;4969205;28;20169;-69
2022/03/19 01:53:03;;;;;;;10.55;2.58;;;3.70;99.90;;;;;;4978083;28;20655;-68
2022/03/19 01:55:29;;;;;;;13.35;1.38;;;3.70;99.90;;;;;;4952668;28;20495;-68
2022/03/19 01:57:57;;;;;;;8.77;2.75;;;3.70;99.90;;;;;;4947116;28;20105;-69
2022/03/19 02:00:24;;;;;;;0.60;0.60;;;3.70;99.90;;;;;;4986665;28;20069;-69
2022/03/19 02:02:51;;;;;;;2.88;1.85;;;3.70;99.90;;;;;;4914127;28;20293;-69
2022/03/19 02:05:19;;;;;;;3.95;1.52;;;3.80;99.90;;;;;;4971221;28;20155;-69
2022/03/19 02:07:46;;;;;;;11.38;2.80;;;3.80;99.90;;;;;;4969031;28;20048;-69
2022/03/19 02:10:14;;;;;;;5.57;1.63;;;3.80;99.90;;;;;;4965136;28;20411;-68
2022/03/19 02:12:41;;;;;;;5.82;2.83;;;3.80;99.90;;;;;;4953377;28;20046;-69
2022/03/19 02:15:09;;;;;;;13.70;2.65;;;3.90;99.90;;;;;;4984673;28;20066;-68
2022/03/19 02:17:35;;;;;;;3.72;1.88;;;3.90;99.90;;;;;;4983360;28;20039;-69
2022/03/19 02:20:04;;;;;;;3.20;1.88;;;4.00;99.90;;;;;;4946050;28;20205;-70
2022/03/19 02:22:30;;;;;;;4.50;2.10;;;4.00;99.90;;;;;;4943940;28;20122;-69
2022/03/19 02:27:41;;;;;;;15.73;2.58;;;4.00;99.90;;;;;;4982071;28;20129;-69
2022/03/19 02:30:10;;;;;;;8.10;2.33;;;4.10;99.90;;;;;;4949646;28;20165;-69
2022/03/19 02:32:36;;;;;;;5.28;1.83;;;4.10;99.90;;;;;;4987131;28;20058;-69
2022/03/19 02:35:03;;;;;;;12.95;3.20;;;4.10;99.90;;;;;;4954949;28;20054;-69
2022/03/19 02:37:41;;;;;;;10.45;2.92;;;4.10;99.90;;;;;;4985186;28;20132;-69
2022/03/19 02:40:15;;;;;;;26.33;2.42;;;4.10;99.90;;;;;;4945129;28;20034;-69
2022/03/19 02:42:41;;;;;;;12.98;2.40;;;4.10;99.90;;;;;;4986765;28;20039;-69
2022/03/19 02:45:07;;;;;;;4.47;2.00;;;4.00;99.90;;;;;;4981543;28;20066;-69
2022/03/19 02:47:33;;;;;;;1.10;1.10;;;4.00;99.90;;;;;;4962265;28;20046;-69
2022/03/19 02:50:00;;;;;;;13.57;3.05;;;4.00;99.90;;;;;;4960161;28;20474;-69
2022/03/19 02:52:26;;;;;;;7.03;2.08;;;4.10;99.90;;;;;;4961169;28;20554;-69
2022/03/19 02:54:52;;;;;;;6.88;2.20;;;4.10;99.90;;;;;;4970216;28;20121;-69
2022/03/19 02:57:18;;;;;;;3.50;1.45;;;4.10;99.90;;;;;;4962225;28;20071;-69
2022/03/19 02:59:43;;;;;;;2.35;1.67;;;4.00;99.90;;;;;;4978004;28;20105;-69
2022/03/19 03:02:09;;;;;;;2.63;1.67;;;4.00;99.90;;;;;;4980124;28;20042;-69
2022/03/19 03:04:34;;;;;;;2.22;1.65;;;4.00;99.90;;;;;;4984567;28;20041;-69
2022/03/19 03:07:03;;;;;;;5.35;2.55;;;3.90;99.90;;;;;;4953668;28;20392;-69
2022/03/19 03:09:30;;;;;;;2.00;1.45;;;3.90;99.90;;;;;;4967261;28;20121;-69
2022/03/19 03:12:02;;;;;;;1.95;1.85;;;3.80;99.90;;;;;;4969491;28;20077;-69
2022/03/19 03:14:28;;;;;;;1.52;1.40;;;3.80;99.90;;;;;;4969492;28;20060;-69
2022/03/19 03:16:57;;;;;;;3.90;1.35;;;3.80;99.90;;;;;;4966119;28;20173;-69
2022/03/19 03:19:23;;;;;;;7.43;2.85;;;3.70;99.90;;;;;;4937982;28;20077;-69
2022/03/19 03:21:49;;;;;;;13.32;2.55;;;3.60;99.90;;;;;;4969210;28;20476;-69
2022/03/19 03:24:15;;;;;;;4.35;3.30;;;3.60;99.90;;;;;;4981266;28;20150;-69
2022/03/19 03:26:43;;;;;;;8.30;2.53;;;3.60;99.90;;;;;;4965261;28;20049;-69
2022/03/19 03:29:09;;;;;;;7.78;2.40;;;3.60;99.90;;;;;;4969559;28;20149;-69
2022/03/19 03:31:35;;;;;;;1.65;1.45;;;3.60;99.90;;;;;;4968492;28;20074;-69
2022/03/19 03:34:02;;;;;;;13.73;2.53;;;3.60;99.90;;;;;;4970395;28;20707;-69
2022/03/19 03:36:28;;;;;;;0.40;0.40;;;3.60;99.90;;;;;;4913470;28;20854;-69
2022/03/19 03:38:57;;;;;;;0.75;0.75;;;3.60;99.90;;;;;;4899889;28;20039;-69
2022/03/19 03:41:22;;;;;;;2.30;1.00;;;3.60;99.90;;;;;;4865140;28;20054;-69
2022/03/19 03:43:48;;;;;;;5.05;1.60;;;3.50;99.90;;;;;;4851567;28;20052;-69
2022/03/19 03:46:15;;;;;;;6.65;3.13;;;3.50;99.90;;;;;;4837608;28;21459;-69
2022/03/19 03:48:41;;;;;;;5.18;2.75;;;3.40;99.90;;;;;;4830840;28;21647;-69
2022/03/19 03:51:07;;;;;;;11.10;2.08;;;3.50;99.90;;;;;;4856650;28;20038;-69
2022/03/19 03:53:35;;;;;;;7.07;3.47;;;3.40;99.90;;;;;;4827495;28;20053;-69
2022/03/19 03:56:03;;;;;;;2.50;1.73;;;3.40;99.90;;;;;;4848324;28;20608;-69
2022/03/19 03:58:29;;;;;;;8.90;2.67;;;3.40;99.90;;;;;;4984415;28;20392;-69
2022/03/19 04:01:04;;;;;;;9.02;1.90;;;3.40;99.90;;;;;;4985961;28;20046;-69
2022/03/19 04:03:34;;;;;;;1.30;1.20;;;3.30;99.90;;;;;;4934497;28;20474;-69
2022/03/19 04:06:00;;;;;;;19.60;1.75;;;3.30;99.90;;;;;;4980193;28;20074;-68
2022/03/19 04:08:26;;;;;;;3.33;1.95;;;3.20;99.90;;;;;;4968923;28;20525;-68
2022/03/19 04:10:52;;;;;;;23.58;2.95;;;3.10;99.90;;;;;;4952301;28;20168;-69
2022/03/19 04:13:17;;;;;;;6.38;2.42;;;3.00;99.90;;;;;;4953842;28;20060;-69
2022/03/19 04:15:43;;;;;;;8.43;1.73;;;3.00;99.90;;;;;;4984651;28;20042;-68
2022/03/19 04:18:09;;;;;;;2.90;2.13;;;3.00;99.90;;;;;;4966275;28;20039;-69
2022/03/19 04:20:35;;;;;;;2.95;1.33;;;3.00;99.90;;;;;;4978238;28;20042;-69
2022/03/19 04:23:01;;;;;;;2.95;2.60;;;3.00;99.90;;;;;;4980701;28;20054;-69
2022/03/19 04:25:27;;;;;;;5.55;2.15;;;3.00;99.90;;;;;;4892322;28;20052;-69
2022/03/19 04:30:52;;;;;;;10.57;2.15;;;3.10;99.90;;;;;;4911902;29;20460;-70
2022/03/19 04:33:20;;;;;;;5.72;2.17;;;3.20;99.90;;;;;;4919854;29;20104;-70
2022/03/19 04:38:29;;;;;;;1.75;1.27;;;3.30;99.90;;;;;;4925198;29;20047;-69
2022/03/19 04:40:56;;;;;;;6.32;2.75;;;3.30;99.90;;;;;;4880365;29;21013;-70
2022/03/19 04:43:22;;;;;;;11.77;1.58;;;3.30;99.90;;;;;;4833609;29;20695;-67
2022/03/19 04:45:48;;;;;;;4.38;2.67;;;3.40;99.90;;;;;;4850330;29;20853;-69
2022/03/19 04:48:14;;;;;;;6.88;3.63;;;3.40;99.90;;;;;;4920593;29;20056;-69
2022/03/19 04:50:42;;;;;;;4.88;2.33;;;3.40;99.90;;;;;;4912063;29;20044;-69
2022/03/19 04:53:09;;;;;;;6.57;2.10;;;3.40;99.90;;;;;;4912993;29;20059;-69
2022/03/19 04:55:36;;;;;;;2.78;1.90;;;3.40;99.90;;;;;;4924312;29;20067;-69
2022/03/19 04:58:03;;;;;;;11.60;3.42;;;3.40;99.90;;;;;;4888975;29;20040;-69
2022/03/19 05:00:29;;;;;;;2.97;2.33;;;3.40;99.90;;;;;;4912803;29;20047;-69
2022/03/19 05:02:55;;;;;;;3.28;2.05;;;3.30;99.90;;;;;;4922937;29;20696;-69
2022/03/19 05:05:24;;;;;;;3.10;2.17;;;3.30;99.90;;;;;;4904884;29;20063;-69
2022/03/19 05:07:51;;;;;;;6.15;3.75;;;3.30;99.90;;;;;;4936605;28;20507;-69
2022/03/19 05:13:10;;;;;;;2.65;2.45;;;3.30;99.90;;;;;;4944892;28;20047;-69
2022/03/19 05:15:36;;;;;;;9.40;2.75;;;3.20;99.90;;;;;;4905564;28;20361;-69
2022/03/19 05:18:02;;;;;;;2.15;1.95;;;3.30;99.90;;;;;;4954234;28;20049;-69
2022/03/19 05:20:28;;;;;;;9.20;3.35;;;3.30;99.90;;;;;;4980536;28;20051;-68
2022/03/19 05:22:54;;;;;;;7.13;3.20;;;3.30;99.90;;;;;;4970000;28;20036;-69
2022/03/19 05:25:20;;;;;;;4.00;2.28;;;3.30;99.90;;;;;;4972872;28;20046;-69
2022/03/19 05:27:46;;;;;;;6.10;3.72;;;3.30;99.90;;;;;;4926933;28;20459;-69
2022/03/19 05:30:11;;;;;;;8.63;3.60;;;3.20;99.90;;;;;;4898924;28;20046;-70
2022/03/19 05:32:38;;;;;;;7.47;2.55;;;3.20;99.90;;;;;;4967384;28;20317;-69
2022/03/19 05:35:04;;;;;;;5.78;3.72;;;3.20;99.90;;;;;;4988747;28;20380;-69
2022/03/19 05:37:30;;;;;;;14.52;3.13;;;3.20;99.90;;;;;;4960421;28;20512;-70
2022/03/19 05:39:56;;;;;;;7.15;3.08;;;3.10;99.90;;;;;;4987544;28;20042;-70
2022/03/19 05:42:22;;;;;;;4.80;2.22;;;3.10;99.90;;;;;;4980067;28;20100;-70
2022/03/19 05:44:48;;;;;;;2.97;1.95;;;3.20;99.90;;;;;;4972075;28;20042;-69
2022/03/19 05:47:14;;;;;;;6.68;2.17;;;3.20;99.90;;;;;;4966283;28;20050;-69
2022/03/19 05:49:41;;;;;;;3.85;2.92;;;3.20;99.90;;;;;;4964442;28;20487;-70
2022/03/19 05:52:07;;;;;;;8.48;3.70;;;3.20;99.90;;;;;;4964633;28;20073;-69
2022/03/19 05:54:32;;;;;;;3.67;2.78;;;3.30;99.90;;;;;;4952699;28;20038;-69
2022/03/19 05:56:58;;;;;;;6.95;2.85;;;3.30;99.90;;;;;;4984629;28;20045;-70
2022/03/19 05:59:24;;;;;;;6.85;3.10;;;3.30;99.90;;;;;;4971385;28;20037;-69
2022/03/19 06:01:50;;;;;;;9.85;3.20;;;3.40;99.90;;;;;;4968178;28;20335;-69
2022/03/19 06:04:15;;;;;;;4.30;2.70;;;3.40;99.90;;;;;;4979846;28;20050;-70
2022/03/19 06:06:41;;;;;;;2.13;2.03;;;3.40;99.90;;;;;;4979053;28;20101;-68
2022/03/19 06:09:07;;;;;;;8.85;3.38;;;3.40;99.90;;;;;;4980853;28;20050;-69
2022/03/19 06:11:32;;;;;;;12.35;3.88;;;3.40;99.90;;;;;;4957896;28;20058;-68
2022/03/19 06:13:58;;;;;;;8.65;3.10;;;3.40;99.90;;;;;;4965369;28;20451;-69
2022/03/19 06:16:24;;;;;;;8.77;4.00;;;3.40;99.90;;;;;;4970038;28;20450;-71
2022/03/19 06:18:50;;;;;;;12.15;4.13;;;3.40;99.90;;;;;;4976149;28;20042;-68
2022/03/19 06:21:20;;;;;;;7.30;3.08;;;3.40;99.90;;;;;;4949822;28;20114;-68
2022/03/19 06:23:46;;;;;;;6.05;2.97;;;3.50;99.90;;;;;;4971731;28;20078;-68
2022/03/19 06:26:12;;;;;;;6.25;3.15;;;3.50;99.90;;;;;;4956873;28;20043;-68
2022/03/19 06:28:38;;;;;;;8.70;3.95;;;3.50;99.90;;;;;;4970700;28;20038;-69
2022/03/19 06:31:04;;;;;;;5.63;4.00;;;3.50;99.90;;;;;;4950129;28;20128;-68
2022/03/19 06:33:30;;;;;;;8.85;3.60;;;3.60;99.90;;;;;;4982670;28;20113;-68
2022/03/19 06:38:40;;;;;;;6.80;3.38;;;3.80;99.90;;;;;;4956326;28;20373;-68
2022/03/19 06:41:06;;;;;;;12.02;4.93;;;3.90;99.90;;;;;;4961680;28;20059;-69
2022/03/19 06:43:33;;;;;;;10.88;4.78;;;3.90;99.90;;;;;;4951470;28;20399;-69
2022/03/19 06:45:58;;;;;;;9.40;3.05;;;4.00;99.90;;;;;;4967357;28;20051;-68
2022/03/19 06:48:25;;;;;;;15.95;5.13;;;4.10;99.90;;;;;;4976613;28;20047;-69
2022/03/19 06:50:51;;;;;;;16.08;4.47;;;4.20;99.90;;;;;;4983374;28;20486;-68
2022/03/19 06:53:26;;;;;;;7.10;4.43;;;4.30;99.90;;;;;;4945011;29;20047;-69
2022/03/19 06:55:52;;;;;;;15.93;4.75;;;4.30;99.90;;;;;;4966722;28;20050;-69
2022/03/19 06:58:21;;;;;;;7.72;3.38;;;4.50;99.90;;;;;;4966326;28;20070;-68
2022/03/19 07:00:47;;;;;;;9.68;4.63;;;4.60;99.90;;;;;;4961579;28;20042;-69
2022/03/19 07:03:12;;;;;;;7.75;3.38;;;4.70;99.90;;;;;;4937272;28;20045;-69
2022/03/19 07:05:38;;;;;;;5.55;3.45;;;4.80;99.90;;;;;;4960168;28;20479;-69
2022/03/19 07:08:08;;;;;;;17.02;5.10;;;4.90;99.90;;;;;;4962211;28;20095;-69
2022/03/19 07:10:36;;;;;;;9.07;4.50;;;5.10;99.90;;;;;;4983298;28;20049;-69
2022/03/19 07:13:03;;;;;;;7.00;3.28;;;5.20;99.90;;;;;;4967960;28;20062;-69
2022/03/19 07:15:29;;;;;;;9.55;5.40;;;5.40;99.90;;;;;;4946886;28;20039;-69
2022/03/19 07:18:00;;;;;;;7.35;3.92;;;5.50;99.90;;;;;;4963520;28;20043;-69
2022/03/19 07:20:26;;;;;;;20.95;4.15;;;5.70;99.90;;;;;;4982733;28;20047;-69
2022/03/19 07:23:00;;;;;;;12.15;5.13;;;5.80;99.90;;;;;;4949588;28;20180;-69
2022/03/19 07:25:31;;;;;;;11.40;3.88;;;5.90;99.90;;;;;;4956672;28;20061;-69
2022/03/19 07:27:59;;;;;;;7.25;3.53;;;6.00;99.90;;;;;;4951065;28;20055;-69
2022/03/19 07:30:25;;;;;;;7.13;2.65;;;6.10;99.90;;;;;;4968358;28;20046;-69
2022/03/19 07:32:51;;;;;;;13.20;3.38;;;6.20;99.90;;;;;;4951348;28;20047;-69
2022/03/19 07:35:17;;;;;;;8.38;3.40;;;6.30;99.90;;;;;;4946129;28;20411;-69
2022/03/19 07:37:44;;;;;;;6.93;3.67;;;6.40;99.90;;;;;;4950455;28;20462;-69
2022/03/19 07:43:25;;;;;;;11.27;2.92;;;6.60;99.90;;;;;;4933620;28;20517;-69
2022/03/19 07:45:51;;;;;;;9.00;4.13;;;6.80;99.90;;;;;;4955069;28;20442;-69
2022/03/19 07:48:18;;;;;;;6.43;3.15;;;6.90;99.90;;;;;;4986261;28;20750;-70
2022/03/19 07:50:43;;;;;;;9.90;2.58;;;7.00;99.90;;;;;;4970133;28;20046;-70
2022/03/19 07:53:10;;;;;;;17.15;4.68;;;7.20;99.90;;;;;;4945073;28;20350;-69
2022/03/19 07:55:38;;;;;;;12.98;2.75;;;7.20;99.90;;;;;;4976710;28;20134;-69
2022/03/19 07:58:04;;;;;;;10.20;2.90;;;7.20;99.90;;;;;;4966748;28;20042;-69
2022/03/19 08:00:30;;;;;;;7.95;3.42;;;7.20;99.90;;;;;;4960352;28;20121;-69
2022/03/19 08:02:56;;;;;;;7.53;3.58;;;7.40;99.90;;;;;;4898136;28;20305;-69
2022/03/19 08:05:21;;;;;;;13.55;2.35;;;7.50;99.90;;;;;;4879243;28;20301;-71
2022/03/19 08:08:15;;;;;;;5.93;2.05;;;7.40;99.90;;;;;;4847890;28;20042;-68
2022/03/19 08:10:41;;;;;;;6.28;2.22;;;7.40;99.90;;;;;;4796778;28;20425;-70
2022/03/19 08:13:09;;;;;;;15.23;3.38;;;7.50;99.90;;;;;;4788220;28;20919;-70
2022/03/19 08:15:59;;;;;;;8.95;3.05;;;7.60;99.90;;;;;;4800183;28;20422;-70
2022/03/19 08:19:15;;;;;;;7.20;2.58;;;7.70;99.90;;;;;;4799929;28;20047;-70
2022/03/19 08:22:04;;;;;;;38.15;3.53;;;7.80;99.90;;;;;;4784345;29;20699;-68
2022/03/19 08:24:29;;;;;;;7.80;3.42;;;8.10;99.90;;;;;;4867269;29;20044;-69
2022/03/19 08:26:55;;;;;;;10.77;3.08;;;8.10;99.90;;;;;;4886706;29;20496;-68
2022/03/19 08:29:24;;;;;;;3.08;2.03;;;8.20;99.90;;;;;;4893963;29;20048;-68
2022/03/19 08:31:53;;;;;;;8.65;2.92;;;8.20;99.90;;;;;;4875863;29;20052;-69
2022/03/19 08:34:19;;;;;;;3.78;2.42;;;8.30;99.90;;;;;;4877105;29;20519;-69
2022/03/19 08:36:45;;;;;;;11.05;2.42;;;8.40;99.90;;;;;;4877584;29;20437;-69
2022/03/19 08:41:55;;;;;;;8.60;2.47;;;8.60;99.90;;;;;;4849406;29;20061;-69
2022/03/19 08:44:21;;;;;;;5.72;2.63;;;8.70;99.90;;;;;;4792761;29;20147;-70
2022/03/19 08:47:11;;;;;;;6.25;3.08;;;8.70;99.90;;;;;;4788788;29;20477;-70
2022/03/19 08:49:37;;;;;;;3.80;2.22;;;8.80;99.90;;;;;;4811542;29;20179;-69
2022/03/19 08:52:03;;;;;;;10.50;2.90;;;8.80;99.90;;;;;;4773847;29;20057;-70
2022/03/19 08:54:29;;;;;;;6.30;2.67;;;9.10;99.90;;;;;;4859755;29;20059;-70
2022/03/19 08:56:55;;;;;;;8.68;2.28;;;9.80;99.90;;;;;;4883281;29;20526;-69
2022/03/19 08:59:20;;;;;;;5.40;2.47;;;10.50;99.90;;;;;;4910728;29;20602;-69
2022/03/19 09:01:49;;;;;;;1.65;1.33;;;11.10;99.80;;;;;;4917373;29;20098;-70
2022/03/19 09:04:15;;;;;;;5.97;2.03;;;11.50;99.90;;;;;;4906962;29;20044;-70
2022/03/19 09:06:41;;;;;;;9.18;2.60;;;11.80;97.90;;;;;;4910051;29;20179;-70
2022/03/19 09:09:07;;;;;;;14.10;2.95;;;12.20;96.30;;;;;;4907984;29;20138;-70
2022/03/19 09:11:34;;;;;;;7.72;2.58;;;12.20;92.80;;;;;;4925332;29;20055;-69
2022/03/19 09:14:02;;;;;;;9.50;2.75;;;12.20;90.60;;;;;;4911546;29;20098;-69
2022/03/19 09:16:29;;;;;;;5.13;2.50;;;12.10;90.20;;;;;;4909617;29;20040;-70
2022/03/19 09:18:56;;;;;;;2.70;1.38;;;12.10;90.70;;;;;;4913372;29;20040;-70
2022/03/19 09:21:21;;;;;;;4.65;1.88;;;12.40;92.60;;;;;;4923898;29;20055;-69
2022/03/19 09:23:50;;;;;;;9.07;2.70;;;12.80;92.20;;;;;;4909560;29;20087;-69
2022/03/19 09:26:17;;;;;;;9.65;2.58;;;12.90;85.10;;;;;;4929873;28;20088;-70
2022/03/19 09:28:43;;;;;;;7.80;1.98;;;12.80;79.50;;;;;;4962113;28;20088;-69
2022/03/19 09:31:09;;;;;;;2.60;0.88;;;12.70;77.70;;;;;;4970779;28;20108;-70
2022/03/19 09:33:34;;;;;;;2.53;1.65;;;12.80;79.10;;;;;;4979496;28;20043;-70
2022/03/19 09:36:03;;;;;;;5.93;2.50;;;13.00;81.90;;;;;;4989559;28;20133;-70
2022/03/19 09:38:29;;;;;;;5.25;2.05;;;13.00;68.50;;;;;;4967360;28;20081;-70
2022/03/19 09:40:56;;;;;;;7.13;2.60;;;12.90;71.30;;;;;;4973353;28;20054;-70
2022/03/19 09:43:23;;;;;;;6.65;2.15;;;13.00;71.30;;;;;;4979375;28;20051;-70
2022/03/19 09:45:49;;;;;;;9.55;2.40;;;12.90;64.80;;;;;;4960319;28;20042;-70
2022/03/19 09:48:14;;;;;;;6.25;1.92;;;13.00;65.80;;;;;;4984993;28;20553;-70
2022/03/19 09:50:41;;;;;;;3.63;1.45;;;13.00;64.20;;;;;;4959596;28;20507;-70
2022/03/19 09:53:09;;;;;;;6.53;1.67;;;12.90;66.00;;;;;;4970189;28;20038;-69
2022/03/19 09:55:39;;;;;;;5.43;1.63;;;12.90;62.50;;;;;;4972377;28;20042;-69
2022/03/19 09:58:05;;;;;;;3.33;1.33;;;12.90;62.70;;;;;;4953876;28;20038;-69
2022/03/19 10:00:31;;;;;;;3.97;1.42;;;12.90;63.70;;;;;;4972337;28;20376;-70
2022/03/19 10:03:04;;;;;;;3.35;1.83;;;13.00;63.90;;;;;;4968951;28;20486;-69
2022/03/19 10:11:04;;;;;;;5.90;1.60;;;13.20;65.20;;;;;;4965338;28;20513;-70
2022/03/19 10:13:30;;;;;;;5.80;1.60;;;13.20;64.10;;;;;;4966222;28;20045;-70
2022/03/19 10:15:56;;;;;;;9.43;1.95;;;13.10;62.20;;;;;;4978138;28;20042;-70
2022/03/19 10:18:32;;;;;;;4.20;2.22;;;12.90;64.20;;;;;;4968031;28;20034;-70
2022/03/19 10:21:02;;;;;;;11.20;1.45;;;12.80;66.00;;;;;;4986157;28;20031;-70
2022/03/19 10:23:37;;;;;;;4.45;1.67;;;12.80;63.70;;;;;;4952259;28;20034;-69
2022/03/19 10:26:02;;;;;;;3.75;1.83;;;12.90;64.50;;;;;;4966039;28;20078;-69
2022/03/19 10:28:33;;;;;;;4.75;0.90;;;13.10;65.20;;;;;;4959786;28;20541;-69
2022/03/19 10:31:00;;;;;;;5.18;1.50;;;13.10;66.50;;;;;;4967127;28;20045;-69
2022/03/19 10:33:28;;;;;;;5.28;1.98;;;13.20;65.70;;;;;;4968091;28;20042;-70
2022/03/19 10:36:07;;;;;;;4.85;2.05;;;13.20;64.40;;;;;;4963000;28;20124;-69
2022/03/19 10:38:42;;;;;;;3.47;1.50;;;13.10;64.30;;;;;;4946501;28;20076;-70
2022/03/19 10:41:08;;;;;;;5.03;1.35;;;12.90;61.70;;;;;;4968569;28;20086;-70
2022/03/19 10:43:34;;;;;;;5.43;1.35;;;12.80;61.50;;;;;;4983074;28;20046;-70
2022/03/19 10:46:03;;;;;;;4.38;1.70;;;12.70;62.00;;;;;;4967681;28;20050;-70
2022/03/19 10:48:29;;;;;;;5.97;1.92;;;12.60;61.70;;;;;;4968503;28;20912;-69
2022/03/19 10:50:55;;;;;;;2.28;0.65;;;12.60;61.80;;;;;;4968988;28;20042;-70
2022/03/19 10:53:23;;;;;;;2.28;1.33;;;12.70;61.70;;;;;;4981016;28;20042;-70
2022/03/19 10:55:48;;;;;;;11.70;1.88;;;12.80;62.00;;;;;;4969536;28;20500;-69
2022/03/19 10:58:14;;;;;;;1.95;1.08;;;12.80;61.00;;;;;;4941970;28;20038;-70
2022/03/19 11:00:41;;;;;;;3.60;1.05;;;12.80;57.30;;;;;;4967635;28;20080;-70
2022/03/19 11:03:19;;;;;;;3.80;1.35;;;12.80;59.00;;;;;;4953294;28;20046;-70
2022/03/19 11:05:45;;;;;;;2.30;1.52;;;12.90;59.40;;;;;;4970056;28;20030;-70
2022/03/19 11:08:13;;;;;;;1.05;0.93;;;13.00;58.60;;;;;;4968857;28;20046;-70
2022/03/19 11:10:40;;;;;;;6.55;1.67;;;13.00;60.30;;;;;;4954668;28;20490;-69
2022/03/19 11:13:12;;;;;;;1.42;1.20;;;13.00;62.30;;;;;;4977031;28;20038;-69
2022/03/19 11:15:39;;;;;;;4.22;1.90;;;13.20;63.60;;;;;;4968623;28;20042;-70
2022/03/19 11:18:09;;;;;;;10.07;2.05;;;13.20;63.70;;;;;;4968887;28;20034;-69
2022/03/19 11:20:35;;;;;;;8.45;2.72;;;13.30;63.70;;;;;;4968201;28;20053;-70
2022/03/19 11:23:04;;;;;;;10.70;1.65;;;13.40;59.50;;;;;;4946301;28;20061;-69
2022/03/19 11:25:53;;;;;;;6.30;1.65;;;13.00;60.80;;;;;;4964910;28;20046;-69
2022/03/19 11:28:19;;;;;;;4.03;1.45;;;13.10;61.40;;;;;;4956988;28;20665;-70
2022/03/19 11:31:04;;;;;;;4.63;1.20;;;13.10;58.70;;;;;;4960329;28;20121;-69
2022/03/19 11:33:30;;;;;;;1.42;0.95;;;13.10;58.80;;;;;;4968758;28;20053;-70
2022/03/19 11:35:59;;;;;;;2.83;1.52;;;13.20;58.40;;;;;;4969650;28;20113;-70
2022/03/19 11:38:25;;;;;;;2.50;1.23;;;13.20;55.20;;;;;;4951893;28;20103;-70
2022/03/19 11:40:56;;;;;;;2.50;1.50;;;13.00;56.60;;;;;;4964984;28;20105;-70
2022/03/19 11:43:24;;;;;;;3.20;1.45;;;13.00;57.50;;;;;;4950534;28;20047;-70
2022/03/19 11:46:00;;;;;;;6.63;2.17;;;13.10;59.20;;;;;;4979632;28;20042;-70
2022/03/19 11:48:35;;;;;;;0.88;0.88;;;13.20;56.20;;;;;;4968445;28;20054;-70
2022/03/19 11:51:19;;;;;;;1.58;1.10;;;13.20;56.80;;;;;;4956830;28;20085;-70
2022/03/19 11:54:00;;;;;;;3.00;1.45;;;13.20;56.60;;;;;;4960607;28;20061;-70
2022/03/19 11:56:51;;;;;;;2.63;1.30;;;13.20;58.00;;;;;;4981519;28;20069;-70
2022/03/19 11:59:16;;;;;;;4.20;1.92;;;13.30;58.00;;;;;;4979339;28;20663;-70
2022/03/19 12:01:55;;;;;;;2.00;1.10;;;13.40;55.00;;;;;;4980611;28;20241;-70
2022/03/19 12:04:22;;;;;;;2.15;1.30;;;13.30;54.00;;;;;;4949350;28;20046;-70
2022/03/19 12:06:56;;;;;;;8.35;2.05;;;13.20;54.90;;;;;;4963376;28;20049;-70
2022/03/19 12:09:34;;;;;;;2.63;1.23;;;13.20;55.90;;;;;;4965964;28;20045;-71
2022/03/19 12:12:15;;;;;;;1.95;1.50;;;13.20;56.00;;;;;;4966160;28;20450;-69
2022/03/19 12:14:41;;;;;;;2.50;1.30;;;13.30;56.20;;;;;;4945105;28;20053;-69
2022/03/19 12:17:25;;;;;;;1.98;1.08;;;13.40;54.00;;;;;;4968646;28;20503;-69
2022/03/19 12:20:01;;;;;;;2.10;1.08;;;13.40;56.70;;;;;;4964006;28;20511;-69
2022/03/19 12:22:36;;;;;;;0.82;0.70;;;13.50;56.80;;;;;;4964090;28;20034;-69
2022/03/19 12:25:16;;;;;;;4.85;2.03;;;13.60;57.20;;;;;;4941630;28;20152;-71
2022/03/19 12:28:08;;;;;;;0.90;0.70;;;13.60;51.40;;;;;;4965001;28;20063;-69
2022/03/19 12:30:35;;;;;;;1.70;0.77;;;13.40;53.40;;;;;;4963026;28;20061;-69
2022/03/19 12:33:01;;;;;;;3.50;1.17;;;13.40;54.20;;;;;;4937098;28;20154;-69
2022/03/19 12:35:39;;;;;;;2.38;1.40;;;13.40;53.10;;;;;;4964840;28;20125;-69
2022/03/19 12:38:05;;;;;;;0.40;0.40;;;13.40;52.30;;;;;;4944017;28;21014;-69
2022/03/19 12:43:19;;;;;;;0.73;0.73;;;13.40;54.60;;;;;;4977665;28;20113;-69
2022/03/19 12:45:48;;;;;;;2.30;0.93;;;13.50;53.90;;;;;;4944787;28;20050;-70
2022/03/19 12:48:18;;;;;;;5.22;1.33;;;13.40;53.50;;;;;;4966209;28;20050;-70
2022/03/19 12:50:53;;;;;;;2.72;1.27;;;13.30;53.00;;;;;;4962661;28;20081;-70
2022/03/19 12:53:36;;;;;;;4.45;1.40;;;13.30;53.20;;;;;;4980911;28;20034;-69
2022/03/19 12:56:19;;;;;;;0.70;0.65;;;13.30;52.70;;;;;;4970860;28;20557;-69
2022/03/19 12:58:47;;;;;;;2.65;1.20;;;13.10;53.10;;;;;;4951301;28;20423;-69
2022/03/19 13:01:14;;;;;;;1.98;1.00;;;13.10;52.70;;;;;;4966048;28;20065;-69
2022/03/19 13:03:41;;;;;;;5.88;1.40;;;13.00;53.30;;;;;;4963966;28;20440;-69
2022/03/19 13:06:08;;;;;;;1.38;0.82;;;13.00;52.90;;;;;;4970135;28;20061;-69
2022/03/19 13:08:48;;;;;;;1.67;0.60;;;12.90;55.30;;;;;;4969588;28;20050;-69
2022/03/19 13:11:18;;;;;;;4.10;1.20;;;13.00;54.00;;;;;;4960656;28;20137;-69
2022/03/19 13:13:45;;;;;;;6.38;2.10;;;13.00;53.10;;;;;;4980658;28;20034;-69
2022/03/19 13:16:12;;;;;;;4.97;1.40;;;13.00;53.30;;;;;;4988133;28;20042;-69
2022/03/19 13:18:41;;;;;;;3.25;1.20;;;12.90;53.30;;;;;;4970722;28;20034;-69
2022/03/19 13:21:12;;;;;;;4.38;1.83;;;12.80;54.20;;;;;;4961057;28;20483;-69
2022/03/19 13:23:41;;;;;;;4.28;1.40;;;12.80;56.50;;;;;;4959574;28;20060;-69
2022/03/19 13:26:10;;;;;;;3.58;1.23;;;12.90;55.50;;;;;;4962778;28;20058;-69